• Join FlightAware (Why Join?)
  • Login
  • US Flag 
10:03AM EST


 

Airport Tracker/Info


-or-


 

Live Flight TrackerFlight Track Log ✈ N4798T ✈ 25-Jul-2013 ✈ KAGC - KMDT

Flight Track Log - Related Links

Times and Time Zones

All times are in EDT time to prevent confusion due to time zone crossing. See the N4798T flight status page for this flight to view local times or setup timezone preferences in your user account.

Time Position Orientation Groundspeed Altitude Reporting Facility
EDT Latitude Longitude Course Direction KTS MPH feet Rate Location/Type
05:43PM 40.3469 -79.7335 66° East  Level Estimated
05:43PM 40.4331 -79.7294 68° East 95 109 5,100  Level Cleveland Center
05:44PM 40.3657 -79.7118 41° Northeast  Level FlightAware Approximate
05:45PM 40.3844 -79.6900 41° Northeast  Level FlightAware Approximate
05:45PM 40.4389 -79.6939 78° East 93 107 5,500  Level Cleveland Center
05:46PM 40.4032 -79.6683 41° Northeast  Level FlightAware Approximate
05:46PM 40.4469 -79.6583 73° East 91 105 5,900  Level Cleveland Center
05:47PM 40.4012 -79.6356 72° East  Level Estimated
05:47PM 40.4572 -79.6253 68° East 91 105 6,300  Level Cleveland Center
05:48PM 40.4183 -79.6115 47° Northeast  Level FlightAware Approximate
05:48PM 40.4631 -79.5953 76° East 90 104 6,800  Level Cleveland Center
05:49PM 40.4161 -79.5788 68° East  Level Estimated
05:49PM 40.4692 -79.5650 75° East 88 101 7,000  Level Cleveland Center
05:50PM 40.4772 -79.5294 73° East 107 123 7,100  Climbing Cleveland Center
05:51PM 40.4892 -79.4883 69° East 119 137 7,100 -60 Level Cleveland Center
05:52PM 40.4992 -79.4472 72° East 122 140 7,000 -60 Descending Cleveland Center
05:53PM 40.5072 -79.4061 76° East 111 128 7,000  Level Cleveland Center
05:54PM 40.5131 -79.3678 79° East 106 122 7,000  Level Cleveland Center
05:55PM 40.5125 -79.3269 91° East 109 125 7,000  Level Cleveland Center
05:56PM 40.5164 -79.2886 82° East 107 123 7,000  Level Cleveland Center
05:57PM 40.5158 -79.2503 91° East 104 120 7,000 -60 Level Cleveland Center
05:58PM 40.5217 -79.2147 78° East 104 120 6,900  Descending Cleveland Center
05:59PM 40.5211 -79.1711 91° East 108 124 7,000  Climbing Cleveland Center
06:00PM 40.5250 -79.1381 81° East 108 124 7,000  Level Cleveland Center
06:01PM 40.5267 -79.1000 87° East 104 120 7,000  Level Cleveland Center
06:02PM 40.5303 -79.0614 83° East 106 122 7,000  Level Cleveland Center
06:03PM 40.5297 -79.0206 91° East 106 122 7,000  Level Cleveland Center
06:04PM 40.5333 -78.9822 83° East 107 123 7,000  Level Cleveland Center
06:05PM 40.5350 -78.9439 87° East 107 123 7,000  Level Cleveland Center
06:06PM 40.5383 -78.9028 84° East 107 123 7,000  Level Cleveland Center
06:07PM 40.5400 -78.8647 87° East 108 124 7,000  Level Cleveland Center
06:08PM 40.5436 -78.8236 83° East 107 123 7,000  Level Cleveland Center
06:09PM 40.5428 -78.7853 92° East 105 121 7,000  Level Cleveland Center
06:10PM 40.5464 -78.7469 83° East 104 120 7,000  Level Cleveland Center
06:11PM 40.5375 -78.7089 107° East 105 121 7,000  Level Cleveland Center
06:12PM 40.5347 -78.6681 95° East 110 127 7,000  Level Cleveland Center
06:13PM 40.5278 -78.6300 103° East 112 129 7,000 -60 Level Cleveland Center
06:14PM 40.5231 -78.5864 98° East 110 127 6,900  Descending Cleveland Center
06:15PM 40.5181 -78.5483 100° East 109 125 7,000  Climbing Cleveland Center
06:16PM 40.5133 -78.5103 99° East 109 125 7,000  Level Cleveland Center
06:17PM 40.5042 -78.4667 105° East 110 127 7,000  Level Cleveland Center
06:18PM 40.5014 -78.4286 95° East 110 127 7,000  Level Cleveland Center
06:19PM 40.4964 -78.3906 100° East 107 123 7,000  Level Cleveland Center
06:20PM 40.4894 -78.3525 103° East 107 123 7,000  Level Cleveland Center
06:21PM 40.4822 -78.3119 103° East 108 124 7,000  Level Cleveland Center
06:22PM 40.4817 -78.2736 91° East 109 125 7,000  Level Cleveland Center
06:23PM 40.4725 -78.2331 107° East 110 127 7,000 -60 Level Cleveland Center
06:24PM 40.4653 -78.1978 105° East 109 125 6,900  Descending Cleveland Center
06:25PM 40.4625 -78.1569 95° East 107 123 7,000  Climbing Cleveland Center
06:26PM 40.4575 -78.1164 99° East 108 124 7,000  Level Cleveland Center
06:27PM 40.4503 -78.0783 104° East 110 127 7,000  Level Cleveland Center
06:28PM 40.4431 -78.0378 103° East 110 127 7,000  Level Cleveland Center
06:30PM 40.4604 -77.9855 66° East  Level FlightAware Approximate
06:37PM 40.4269 -77.7194 102° East  Level FlightAware Approximate
06:38PM 40.4211 -77.6829 102° East  Level FlightAware Approximate
06:39PM 40.4153 -77.6465 102° East  Level FlightAware Approximate
06:40PM 40.4096 -77.6101 102° East  Level FlightAware Approximate
06:41PM 40.4038 -77.5737 102° East  Level FlightAware Approximate
06:42PM 40.3964 -77.5379 111° Southeast  Level FlightAware Approximate
06:43PM 40.3860 -77.5033 111° Southeast  Level FlightAware Approximate
06:44PM 40.3757 -77.4687 111° Southeast  Level FlightAware Approximate
06:45PM 40.3653 -77.4341 111° Southeast  Level FlightAware Approximate
06:46PM 40.3549 -77.3996 112° Southeast  Level FlightAware Approximate
06:47PM 40.3478 -77.3638 98° East  Level FlightAware Approximate
06:48PM 40.3438 -77.3271 98° East  Level FlightAware Approximate
06:49PM 40.3397 -77.2903 98° East  Level FlightAware Approximate
06:50PM 40.3356 -77.2535 98° East  Level FlightAware Approximate
06:51PM 40.3301 -77.2171 105° East  Level FlightAware Approximate
06:52PM 40.3229 -77.1812 105° East  Level FlightAware Approximate
06:53PM 40.3157 -77.1453 105° East  Level FlightAware Approximate
06:54PM 40.3085 -77.1094 105° East  Level FlightAware Approximate
06:55PM 40.3013 -77.0734 105° East  Level FlightAware Approximate
06:56PM 40.2825 -77.0476 114° Southeast  Level FlightAware Approximate
06:57PM 40.2712 -77.0135 114° Southeast  Level FlightAware Approximate
06:58PM 40.2614 -76.9788 108° East  Level FlightAware Approximate
06:59PM 40.2525 -76.9435 108° East  Level FlightAware Approximate
07:00PM 40.2420 -76.9091 114° Southeast  Level FlightAware Approximate
07:01PM 40.2306 -76.8752 114° Southeast  Level FlightAware Approximate
07:02PM 40.2193 -76.8412 114° Southeast  Level FlightAware Approximate
07:03PM 40.2066 -76.8080 118° Southeast  Level FlightAware Approximate
07:04PM 40.1934 -76.7752 118° Southeast  Level FlightAware Approximate
07:05PM 40.1932 -76.7626 118° Southeast  Level Estimated
07:06PM 40.1932 -76.7626 118° Southeast  Level Estimated
07:07PM 40.1932 -76.7626 118° Southeast  Level Estimated
07:08PM 40.1932 -76.7626 118° Southeast  Level Estimated
07:09PM 40.1932 -76.7626 118° Southeast  Level Estimated
07:10PM 40.1932 -76.7626 118° Southeast  Level Estimated
07:11PM 40.1932 -76.7626 118° Southeast  Level Estimated